Time;durP1;ratioP1;P1;durP2;ratioP2;P2;SDS_P1;SDS_P2;PMS_P1;PMS_P2;Temp;Humidity;BMP_temperature;BMP_pressure;BME280_temperature;BME280_humidity;BME280_pressure;Samples;Min_cycle;Max_cycle;Signal;HPM_P1;HPM_P2
2024/04/15 00:01:47;;;;;;;9.57;3.65;;;4.80;99.90;;;;;;5413244;26;20018;-83
2024/04/15 00:04:12;;;;;;;12.32;3.38;;;4.80;99.90;;;;;;5388037;26;20015;-83
2024/04/15 00:06:38;;;;;;;15.57;3.90;;;4.80;99.90;;;;;;5392143;26;20009;-83
2024/04/15 00:09:05;;;;;;;11.07;3.47;;;4.80;99.90;;;;;;5388488;26;20008;-83
2024/04/15 00:11:31;;;;;;;14.07;3.80;;;4.80;99.90;;;;;;5397631;26;20007;-83
2024/04/15 00:13:56;;;;;;;11.05;3.60;;;4.80;99.90;;;;;;5397918;26;20008;-83
2024/04/15 00:16:22;;;;;;;9.27;3.00;;;4.80;99.90;;;;;;5400662;26;20484;-83
2024/04/15 00:18:48;;;;;;;10.25;3.28;;;4.80;99.90;;;;;;5396444;26;20008;-83
2024/04/15 00:21:13;;;;;;;15.90;4.10;;;4.80;99.90;;;;;;5401332;26;20008;-83
2024/04/15 00:23:39;;;;;;;7.78;3.42;;;4.80;99.90;;;;;;5400094;26;20004;-83
2024/04/15 00:26:05;;;;;;;8.95;2.90;;;4.80;99.90;;;;;;5392310;26;20022;-83
2024/04/15 00:28:30;;;;;;;9.38;3.33;;;4.80;99.90;;;;;;5400101;26;20097;-83
2024/04/15 00:30:56;;;;;;;13.25;3.70;;;4.80;99.90;;;;;;5416606;26;20007;-83
2024/04/15 00:33:22;;;;;;;10.48;3.63;;;4.80;99.90;;;;;;5401039;26;20431;-83
2024/04/15 00:35:48;;;;;;;8.52;3.38;;;4.70;99.90;;;;;;5390834;26;20510;-83
2024/04/15 00:38:14;;;;;;;15.52;3.92;;;4.70;99.90;;;;;;5397290;26;20008;-83
2024/04/15 00:40:40;;;;;;;12.65;4.10;;;4.60;99.90;;;;;;5399287;26;20004;-84
2024/04/15 00:43:07;;;;;;;9.35;3.10;;;4.60;99.90;;;;;;5410362;26;20004;-83
2024/04/15 00:45:33;;;;;;;10.38;3.63;;;4.60;99.90;;;;;;5389142;26;20015;-83
2024/04/15 00:48:02;;;;;;;12.43;3.50;;;4.50;99.90;;;;;;5397349;26;20019;-83
2024/04/15 00:50:30;;;;;;;8.52;3.20;;;4.40;99.90;;;;;;5400069;26;20008;-82
2024/04/15 00:52:57;;;;;;;11.00;3.28;;;4.30;99.90;;;;;;5393134;26;20004;-82
2024/04/15 00:55:24;;;;;;;13.93;4.63;;;4.30;99.90;;;;;;5402901;26;20019;-83
2024/04/15 00:57:53;;;;;;;11.68;3.53;;;4.20;99.90;;;;;;5393296;26;20008;-83
2024/04/15 01:00:19;;;;;;;10.00;3.22;;;4.10;99.90;;;;;;5419426;26;20003;-83
2024/04/15 01:02:46;;;;;;;8.52;3.25;;;4.00;99.90;;;;;;5414434;26;20008;-83
2024/04/15 01:05:11;;;;;;;15.73;3.88;;;4.00;99.90;;;;;;5406553;26;20008;-83
2024/04/15 01:07:38;;;;;;;12.05;3.95;;;3.80;99.90;;;;;;5397741;26;20023;-83
2024/04/15 01:10:05;;;;;;;8.63;3.45;;;3.70;99.90;;;;;;5390078;26;20447;-83
2024/04/15 01:12:31;;;;;;;14.13;4.22;;;3.70;99.90;;;;;;5407422;26;20008;-82
2024/04/15 01:14:57;;;;;;;15.63;4.90;;;3.70;99.90;;;;;;5395704;26;20008;-82
2024/04/15 01:17:23;;;;;;;13.57;4.18;;;3.70;99.90;;;;;;5401032;26;20138;-82
2024/04/15 01:19:48;;;;;;;12.93;3.72;;;3.60;99.90;;;;;;5407989;26;20008;-83
2024/04/15 01:22:23;;;;;;;11.70;4.03;;;4.20;99.90;;;;;;5410614;26;20014;-84
2024/04/15 01:24:50;;;;;;;9.95;3.90;;;3.70;99.90;;;;;;5400984;26;20024;-83
2024/04/15 01:27:17;;;;;;;8.45;3.80;;;3.80;99.90;;;;;;5398930;26;20347;-84
2024/04/15 01:29:45;;;;;;;12.13;4.28;;;3.80;99.90;;;;;;5414995;26;20008;-83
2024/04/15 01:32:11;;;;;;;11.07;4.00;;;3.80;99.90;;;;;;5414013;26;20567;-83
2024/04/15 01:34:36;;;;;;;13.50;3.55;;;3.90;99.90;;;;;;5393088;26;20015;-83
2024/04/15 01:37:03;;;;;;;10.98;4.32;;;3.90;99.90;;;;;;5402545;26;20008;-83
2024/04/15 01:39:29;;;;;;;14.75;4.20;;;3.90;99.90;;;;;;5406200;26;20019;-83
2024/04/15 01:41:55;;;;;;;13.98;3.92;;;3.80;99.90;;;;;;5403515;26;20000;-83
2024/04/15 01:44:20;;;;;;;17.33;4.43;;;3.90;99.90;;;;;;5399941;26;20032;-83
2024/04/15 01:46:46;;;;;;;10.43;3.63;;;3.80;99.90;;;;;;5406178;26;20455;-83
2024/04/15 01:49:12;;;;;;;13.98;4.28;;;3.80;99.90;;;;;;5405788;26;20008;-83
2024/04/15 01:51:37;;;;;;;13.70;3.78;;;3.80;99.90;;;;;;5404081;26;20015;-83
2024/04/15 01:54:03;;;;;;;14.70;4.20;;;3.90;99.90;;;;;;5400893;26;20008;-83
2024/04/15 01:56:29;;;;;;;16.02;4.00;;;3.90;99.90;;;;;;5406657;26;20004;-83
2024/04/15 01:58:55;;;;;;;14.85;4.88;;;3.90;99.90;;;;;;5414769;26;20119;-83
2024/04/15 02:01:21;;;;;;;9.20;4.13;;;4.00;99.90;;;;;;5408727;26;20015;-83
2024/04/15 02:03:47;;;;;;;20.83;4.28;;;4.00;99.90;;;;;;5404528;26;20008;-83
2024/04/15 02:06:12;;;;;;;24.20;4.50;;;4.00;99.90;;;;;;5406251;26;20019;-82
2024/04/15 02:08:38;;;;;;;18.75;4.57;;;4.00;99.90;;;;;;5406723;26;20008;-83
2024/04/15 02:11:04;;;;;;;15.25;3.95;;;4.10;99.90;;;;;;5394981;26;20005;-83
2024/04/15 02:13:29;;;;;;;10.95;3.92;;;4.10;99.90;;;;;;5410557;26;20015;-83
2024/04/15 02:15:55;;;;;;;12.30;3.83;;;4.10;99.90;;;;;;5413102;26;20010;-83
2024/04/15 02:18:20;;;;;;;11.65;3.92;;;4.10;99.90;;;;;;5406001;26;20009;-83
2024/04/15 02:20:47;;;;;;;13.77;3.97;;;4.20;99.90;;;;;;5395790;26;20019;-82
2024/04/15 02:23:13;;;;;;;14.43;3.90;;;4.30;99.90;;;;;;5405821;26;20455;-82
2024/04/15 02:25:39;;;;;;;15.48;3.97;;;4.30;99.90;;;;;;5423411;26;20014;-83
2024/04/15 02:28:04;;;;;;;13.63;3.88;;;4.40;99.90;;;;;;5413619;26;20004;-83
2024/04/15 02:30:30;;;;;;;9.73;3.47;;;4.40;99.90;;;;;;5409887;26;20015;-83
2024/04/15 02:32:56;;;;;;;16.65;4.03;;;4.40;99.90;;;;;;5410814;26;20004;-83
2024/04/15 02:35:22;;;;;;;14.07;3.40;;;4.40;99.90;;;;;;5401919;26;20364;-83
2024/04/15 02:37:47;;;;;;;13.88;4.45;;;4.40;99.90;;;;;;5401480;26;20008;-82
2024/04/15 02:40:13;;;;;;;29.55;4.47;;;4.40;99.90;;;;;;5392687;26;20020;-83
2024/04/15 02:42:39;;;;;;;12.13;3.97;;;4.50;99.90;;;;;;5398658;26;20019;-83
2024/04/15 02:45:24;;;;;;;9.63;3.30;;;4.50;99.90;;;;;;5376626;26;20468;-83
2024/04/15 02:47:50;;;;;;;14.30;3.33;;;4.60;99.90;;;;;;5393361;26;20019;-83
2024/04/15 02:50:15;;;;;;;11.50;3.58;;;4.70;99.90;;;;;;5408090;26;20046;-83
2024/04/15 02:52:41;;;;;;;16.75;4.40;;;4.80;99.90;;;;;;5399635;26;20004;-83
2024/04/15 02:55:07;;;;;;;12.65;3.80;;;4.90;99.90;;;;;;5402079;26;20004;-83
2024/04/15 02:57:33;;;;;;;12.32;4.15;;;5.00;99.90;;;;;;5398155;26;20084;-83
2024/04/15 02:59:59;;;;;;;8.82;3.78;;;5.10;99.90;;;;;;5404972;26;20077;-83
2024/04/15 03:02:25;;;;;;;10.27;3.83;;;5.60;99.90;;;;;;5402561;26;20016;-83
2024/04/15 03:04:51;;;;;;;12.15;3.85;;;5.20;99.90;;;;;;5403906;26;20375;-83
2024/04/15 03:07:17;;;;;;;15.38;3.55;;;5.30;99.90;;;;;;5403112;26;20018;-83
2024/04/15 03:09:44;;;;;;;17.15;4.22;;;5.40;99.90;;;;;;5417023;26;20036;-83
2024/04/15 03:12:12;;;;;;;12.88;4.20;;;5.40;99.90;;;;;;5407106;26;20061;-83
2024/04/15 03:14:38;;;;;;;13.90;3.70;;;5.40;99.90;;;;;;5409781;26;20004;-83
2024/04/15 03:17:23;;;;;;;14.07;3.85;;;5.40;99.90;;;;;;5383642;26;20028;-83
2024/04/15 03:19:52;;;;;;;13.98;3.90;;;5.50;99.90;;;;;;5399924;26;20049;-83
2024/04/15 03:22:18;;;;;;;8.32;3.47;;;5.50;99.90;;;;;;5395378;26;20026;-83
2024/04/15 03:24:47;;;;;;;13.77;4.28;;;5.50;99.90;;;;;;5394567;26;20004;-83
2024/04/15 03:27:13;;;;;;;17.17;4.07;;;5.50;99.90;;;;;;5399860;26;20008;-83
2024/04/15 03:29:38;;;;;;;15.23;4.82;;;5.50;99.90;;;;;;5410977;26;20033;-82
2024/04/15 03:32:24;;;;;;;12.15;3.83;;;5.60;99.90;;;;;;5406957;26;20360;-83
2024/04/15 03:34:49;;;;;;;12.70;3.83;;;5.60;99.90;;;;;;5392077;26;20055;-84
2024/04/15 03:37:15;;;;;;;11.68;3.42;;;5.70;99.90;;;;;;5397072;26;20008;-84
2024/04/15 03:39:41;;;;;;;14.30;4.25;;;5.70;99.90;;;;;;5404547;26;20358;-83
2024/04/15 03:42:07;;;;;;;9.20;3.05;;;5.80;99.90;;;;;;5393469;26;20022;-82
2024/04/15 03:44:33;;;;;;;8.75;3.83;;;5.90;99.90;;;;;;5394507;26;20003;-83
2024/04/15 03:46:59;;;;;;;12.88;4.13;;;5.90;99.90;;;;;;5415872;26;20035;-83
2024/04/15 03:49:24;;;;;;;11.70;4.82;;;5.90;99.90;;;;;;5398639;26;20056;-83
2024/04/15 03:52:10;;;;;;;10.82;3.33;;;6.00;99.90;;;;;;5386077;26;20008;-83
2024/04/15 03:54:38;;;;;;;6.72;3.38;;;6.00;99.90;;;;;;5404065;26;20019;-84
2024/04/15 03:57:05;;;;;;;9.15;3.67;;;6.00;99.90;;;;;;5396591;26;20008;-83
2024/04/15 03:59:31;;;;;;;9.57;3.50;;;6.10;99.90;;;;;;5393103;26;20024;-83
2024/04/15 04:01:58;;;;;;;8.90;3.25;;;6.10;99.90;;;;;;5399075;26;20385;-82
2024/04/15 04:04:24;;;;;;;10.55;4.05;;;6.10;99.90;;;;;;5401642;26;20020;-83
2024/04/15 04:06:49;;;;;;;6.13;3.10;;;6.10;99.90;;;;;;5400050;26;20008;-83
2024/04/15 04:09:15;;;;;;;9.15;4.32;;;6.10;99.90;;;;;;5397800;26;20070;-82
2024/04/15 04:11:41;;;;;;;10.32;3.90;;;6.10;99.90;;;;;;5402398;26;20008;-83
2024/04/15 04:14:07;;;;;;;13.30;4.20;;;6.20;99.90;;;;;;5391758;26;20021;-84
2024/04/15 04:16:33;;;;;;;11.95;3.50;;;6.20;99.90;;;;;;5399436;26;20351;-83
2024/04/15 04:18:58;;;;;;;12.60;4.10;;;6.20;99.90;;;;;;5392205;26;20077;-83
2024/04/15 04:21:47;;;;;;;8.52;4.00;;;6.20;99.90;;;;;;5380076;26;20005;-83
2024/04/15 04:24:13;;;;;;;12.18;4.38;;;6.20;99.90;;;;;;5391008;26;20015;-82
2024/04/15 04:26:38;;;;;;;12.57;4.45;;;6.20;99.90;;;;;;5396520;26;20016;-84
2024/04/15 04:29:04;;;;;;;9.57;4.15;;;6.20;99.90;;;;;;5405756;26;20018;-83
2024/04/15 04:31:30;;;;;;;14.35;4.75;;;6.40;99.90;;;;;;5396529;26;20058;-83
2024/04/15 04:33:56;;;;;;;8.55;4.18;;;6.20;99.90;;;;;;5412185;26;20007;-83
2024/04/15 04:36:22;;;;;;;13.13;4.40;;;6.20;99.90;;;;;;5392780;26;20011;-83
2024/04/15 04:38:48;;;;;;;13.15;4.55;;;6.10;99.90;;;;;;5405348;26;20007;-85
2024/04/15 04:41:14;;;;;;;16.08;5.35;;;6.10;99.90;;;;;;5405780;26;20016;-82
2024/04/15 04:43:40;;;;;;;10.45;4.13;;;6.10;99.90;;;;;;5385181;26;20479;-84
2024/04/15 04:46:09;;;;;;;15.52;5.22;;;6.10;99.90;;;;;;5396702;26;20068;-82
2024/04/15 04:48:35;;;;;;;10.35;5.10;;;6.10;99.90;;;;;;5396225;26;20019;-83
2024/04/15 04:51:11;;;;;;;14.13;4.43;;;6.10;99.90;;;;;;5411161;26;20043;-83
2024/04/15 04:53:37;;;;;;;11.80;4.78;;;6.10;99.90;;;;;;5405150;26;20023;-83
2024/04/15 04:56:13;;;;;;;13.77;4.63;;;6.10;99.90;;;;;;5398094;26;20402;-83
2024/04/15 04:58:40;;;;;;;10.60;4.70;;;6.00;99.90;;;;;;5410421;26;20466;-83
2024/04/15 05:01:13;;;;;;;9.88;5.03;;;6.00;99.90;;;;;;5409638;26;20007;-82
2024/04/15 05:03:42;;;;;;;8.02;3.72;;;6.00;99.90;;;;;;5391910;26;20015;-84
2024/04/15 05:06:09;;;;;;;8.38;4.13;;;6.00;99.90;;;;;;5396487;26;20022;-84
2024/04/15 05:08:35;;;;;;;12.40;4.53;;;6.00;99.90;;;;;;5394394;26;20008;-83
2024/04/15 05:11:01;;;;;;;14.38;4.93;;;6.00;99.90;;;;;;5412850;26;20084;-83
2024/04/15 05:13:27;;;;;;;11.98;3.97;;;6.00;99.90;;;;;;5401591;26;20005;-83
2024/04/15 05:16:04;;;;;;;15.65;5.43;;;6.10;99.90;;;;;;5402525;26;20085;-82
2024/04/15 05:18:31;;;;;;;11.82;4.15;;;6.10;99.90;;;;;;5409429;26;20451;-83
2024/04/15 05:20:59;;;;;;;16.20;5.53;;;6.20;99.90;;;;;;5413002;26;20018;-83
2024/04/15 05:23:28;;;;;;;12.15;5.07;;;6.30;99.90;;;;;;5390815;26;20012;-82
2024/04/15 05:25:55;;;;;;;14.50;5.32;;;6.30;99.90;;;;;;5384023;26;20486;-83
2024/04/15 05:28:21;;;;;;;11.90;5.10;;;6.30;99.90;;;;;;5393893;26;20398;-83
2024/04/15 05:30:46;;;;;;;13.27;4.97;;;6.40;99.90;;;;;;5394028;26;20008;-82
2024/04/15 05:33:12;;;;;;;9.60;5.05;;;6.50;99.90;;;;;;5394359;26;20454;-83
2024/04/15 05:35:40;;;;;;;11.70;5.07;;;6.50;99.90;;;;;;5402474;26;20004;-82
2024/04/15 05:38:06;;;;;;;10.27;5.07;;;6.70;99.90;;;;;;5397297;26;20448;-82
2024/04/15 05:40:32;;;;;;;12.75;5.78;;;6.70;99.90;;;;;;5391582;26;20082;-81
2024/04/15 05:42:57;;;;;;;16.88;5.28;;;6.80;99.90;;;;;;5402963;26;20008;-82
2024/04/15 05:45:23;;;;;;;13.50;5.20;;;6.90;99.90;;;;;;5388755;26;20012;-82
2024/04/15 05:47:48;;;;;;;12.73;4.78;;;6.90;99.90;;;;;;5396021;26;20008;-81
2024/04/15 05:50:14;;;;;;;13.18;4.57;;;6.90;99.90;;;;;;5403885;26;20007;-82
2024/04/15 05:52:40;;;;;;;15.25;5.63;;;6.90;99.90;;;;;;5392883;26;20019;-82
2024/04/15 05:55:05;;;;;;;17.73;5.78;;;7.00;99.90;;;;;;5410404;26;20639;-82
2024/04/15 05:57:31;;;;;;;12.15;5.63;;;7.00;99.90;;;;;;5389647;26;20465;-83
2024/04/15 05:59:57;;;;;;;9.68;5.25;;;7.10;99.90;;;;;;5385177;26;20450;-83
2024/04/15 06:02:22;;;;;;;13.35;5.75;;;7.10;99.90;;;;;;5418291;26;20088;-81
2024/04/15 06:04:50;;;;;;;16.70;5.72;;;7.10;99.90;;;;;;5394552;26;20502;-85
2024/04/15 06:07:17;;;;;;;11.13;5.38;;;7.20;99.90;;;;;;5398783;26;20019;-82
2024/04/15 06:09:43;;;;;;;17.35;6.25;;;7.10;99.90;;;;;;5387061;26;20008;-82
2024/04/15 06:12:08;;;;;;;11.80;5.43;;;7.20;99.90;;;;;;5400917;26;20351;-83
2024/04/15 06:14:34;;;;;;;16.15;6.45;;;7.50;99.90;;;;;;5403230;26;20009;-83
2024/04/15 06:17:02;;;;;;;10.65;5.30;;;7.40;99.90;;;;;;5416137;26;20033;-82
2024/04/15 06:19:28;;;;;;;15.00;5.55;;;7.50;99.90;;;;;;5412775;26;20015;-82
2024/04/15 06:21:54;;;;;;;19.50;5.35;;;7.70;99.90;;;;;;5408273;26;20571;-82
2024/04/15 06:24:20;;;;;;;12.15;5.07;;;7.80;99.90;;;;;;5382593;26;20008;-83
2024/04/15 06:26:47;;;;;;;11.52;5.18;;;8.00;99.90;;;;;;5378491;26;20056;-83
2024/04/15 06:29:13;;;;;;;13.30;5.53;;;8.10;99.90;;;;;;5400194;26;20008;-83
2024/04/15 06:31:39;;;;;;;15.88;5.78;;;8.30;99.90;;;;;;5414880;26;20007;-83
2024/04/15 06:34:05;;;;;;;12.45;6.18;;;8.40;99.90;;;;;;5385891;26;20012;-83
2024/04/15 06:36:31;;;;;;;17.38;6.55;;;8.50;99.90;;;;;;5398749;26;20003;-80
2024/04/15 06:38:57;;;;;;;18.20;7.15;;;9.40;99.90;;;;;;5391944;26;20016;-82
2024/04/15 06:41:22;;;;;;;24.15;7.80;;;8.70;99.90;;;;;;5393492;26;20536;-82
2024/04/15 06:43:50;;;;;;;16.25;7.45;;;8.80;99.90;;;;;;5390888;26;20478;-82
2024/04/15 06:46:22;;;;;;;22.98;8.05;;;8.90;99.90;;;;;;5354678;26;20008;-83
2024/04/15 06:48:48;;;;;;;18.88;7.93;;;8.80;99.90;;;;;;5390694;26;20008;-82
2024/04/15 06:51:14;;;;;;;20.90;9.13;;;9.00;99.90;;;;;;5393429;26;20081;-81
2024/04/15 06:53:40;;;;;;;17.42;8.38;;;9.00;99.90;;;;;;5398584;26;20007;-81
2024/04/15 06:56:08;;;;;;;17.73;8.20;;;9.10;99.90;;;;;;5399403;26;20092;-81
2024/04/15 06:58:34;;;;;;;19.30;8.10;;;9.20;99.90;;;;;;5403135;26;20978;-81
2024/04/15 07:00:59;;;;;;;19.85;8.40;;;9.30;99.90;;;;;;5389641;26;20016;-82
2024/04/15 07:03:25;;;;;;;21.60;8.23;;;9.30;99.90;;;;;;5392986;26;20018;-83
2024/04/15 07:05:51;;;;;;;19.63;9.20;;;9.40;99.90;;;;;;5391519;26;20459;-82
2024/04/15 07:08:17;;;;;;;17.60;8.10;;;9.40;99.90;;;;;;5395779;26;20012;-82
2024/04/15 07:10:43;;;;;;;19.92;7.47;;;9.50;99.90;;;;;;5385037;26;20349;-82
2024/04/15 07:13:09;;;;;;;17.27;8.20;;;9.60;99.90;;;;;;5393895;26;20018;-82
2024/04/15 07:15:34;;;;;;;17.08;8.07;;;9.70;99.90;;;;;;5391669;26;20007;-82
2024/04/15 07:18:00;;;;;;;15.93;7.22;;;9.90;99.90;;;;;;5392033;26;20019;-81
2024/04/15 07:20:26;;;;;;;21.33;7.90;;;9.90;99.90;;;;;;5415146;26;20080;-83
2024/04/15 07:22:51;;;;;;;20.98;7.32;;;9.90;99.90;;;;;;5399052;26;20007;-83
2024/04/15 07:25:17;;;;;;;15.50;6.55;;;10.00;99.90;;;;;;5384528;26;20357;-83
2024/04/15 07:27:43;;;;;;;17.40;5.50;;;9.90;99.90;;;;;;5394778;26;20107;-82
2024/04/15 07:30:09;;;;;;;16.13;6.97;;;9.90;99.90;;;;;;5379537;26;20451;-82
2024/04/15 07:32:34;;;;;;;15.43;5.18;;;9.90;99.90;;;;;;5393196;26;20003;-81
2024/04/15 07:35:00;;;;;;;12.43;4.40;;;10.00;99.90;;;;;;5388371;26;20021;-82
2024/04/15 07:37:26;;;;;;;12.80;4.97;;;10.00;99.90;;;;;;5397874;26;20012;-84
2024/04/15 07:39:51;;;;;;;9.18;3.63;;;10.20;99.90;;;;;;5392818;26;20022;-81
2024/04/15 07:42:18;;;;;;;12.95;4.50;;;10.20;99.90;;;;;;5391426;26;20032;-81
2024/04/15 07:44:47;;;;;;;11.52;4.90;;;10.30;99.90;;;;;;5378008;26;20023;-82
2024/04/15 07:47:13;;;;;;;13.20;4.60;;;10.30;99.90;;;;;;5378013;26;20027;-81
2024/04/15 07:49:39;;;;;;;12.60;4.40;;;10.30;99.90;;;;;;5391665;26;20008;-83
2024/04/15 07:52:04;;;;;;;11.27;4.18;;;10.20;99.90;;;;;;5382249;26;20587;-82
2024/04/15 07:54:31;;;;;;;16.35;4.30;;;10.20;99.90;;;;;;5409668;26;20550;-82
2024/04/15 07:56:57;;;;;;;12.23;4.22;;;10.20;99.90;;;;;;5386652;26;20008;-82
2024/04/15 07:59:22;;;;;;;11.95;3.78;;;10.20;99.90;;;;;;5398791;26;20018;-81
2024/04/15 08:01:49;;;;;;;13.57;3.95;;;10.30;99.90;;;;;;5384749;26;20085;-82
2024/04/15 08:04:15;;;;;;;9.98;4.13;;;10.30;99.90;;;;;;5396560;26;20351;-82
2024/04/15 08:06:41;;;;;;;12.85;3.90;;;10.40;99.90;;;;;;5383413;26;20041;-83
2024/04/15 08:09:07;;;;;;;7.93;3.58;;;10.60;99.90;;;;;;5395859;26;20274;-83
2024/04/15 08:11:34;;;;;;;12.55;3.78;;;10.70;99.90;;;;;;5395760;26;20035;-82
2024/04/15 08:14:01;;;;;;;8.15;3.55;;;10.90;99.90;;;;;;5394466;26;20069;-83
2024/04/15 08:16:26;;;;;;;15.55;4.82;;;10.90;99.90;;;;;;5398240;26;20008;-84
2024/04/15 08:18:53;;;;;;;11.95;4.25;;;11.00;99.90;;;;;;5401818;26;20081;-82
2024/04/15 08:21:20;;;;;;;10.27;3.97;;;11.00;99.90;;;;;;5412154;26;20006;-83
2024/04/15 08:23:46;;;;;;;9.93;3.22;;;10.90;99.90;;;;;;5421311;26;20023;-81
2024/04/15 08:26:12;;;;;;;13.40;4.28;;;10.80;99.90;;;;;;5393512;26;20015;-82
2024/04/15 08:28:38;;;;;;;12.55;3.58;;;10.90;99.90;;;;;;5415347;26;20008;-81
2024/04/15 08:31:03;;;;;;;10.57;3.53;;;11.00;99.90;;;;;;5408269;26;20014;-82
2024/04/15 08:33:29;;;;;;;9.40;2.90;;;11.10;99.90;;;;;;5400817;26;20019;-83
2024/04/15 08:35:55;;;;;;;13.00;3.80;;;11.10;99.90;;;;;;5384553;26;20467;-82
2024/04/15 08:38:20;;;;;;;8.57;2.92;;;11.00;99.90;;;;;;5402089;26;20129;-81
2024/04/15 08:40:57;;;;;;;10.18;3.13;;;10.90;99.90;;;;;;5409828;26;20009;-81
2024/04/15 08:43:24;;;;;;;12.02;3.33;;;10.90;99.90;;;;;;5396019;26;20054;-83
2024/04/15 08:45:57;;;;;;;7.85;3.00;;;10.90;99.90;;;;;;5381237;26;20019;-82
2024/04/15 08:48:26;;;;;;;8.45;3.05;;;11.00;99.90;;;;;;5383365;26;20046;-83
2024/04/15 08:50:56;;;;;;;9.70;2.97;;;11.00;99.90;;;;;;5382482;26;20039;-83
2024/04/15 08:53:22;;;;;;;10.23;3.10;;;11.00;99.90;;;;;;5385166;26;20077;-81
2024/04/15 08:55:48;;;;;;;6.85;2.92;;;11.00;99.90;;;;;;5386095;26;20247;-83
2024/04/15 08:58:14;;;;;;;7.50;3.85;;;10.90;99.90;;;;;;5402980;26;20023;-80
2024/04/15 09:00:41;;;;;;;8.55;3.65;;;10.80;99.90;;;;;;5386860;26;20168;-81
2024/04/15 09:03:07;;;;;;;8.48;3.53;;;10.80;99.90;;;;;;5407492;26;20014;-83
2024/04/15 09:05:33;;;;;;;7.15;3.95;;;10.80;99.90;;;;;;5408166;26;20024;-82
2024/04/15 09:07:59;;;;;;;7.53;3.20;;;10.80;99.90;;;;;;5394587;26;20454;-81
2024/04/15 09:10:26;;;;;;;7.93;3.45;;;10.90;99.90;;;;;;5394228;26;20035;-82
2024/04/15 09:12:52;;;;;;;8.07;3.40;;;11.00;99.90;;;;;;5380848;26;20039;-81
2024/04/15 09:15:22;;;;;;;9.30;3.33;;;11.10;99.90;;;;;;5395226;26;20231;-81
2024/04/15 09:17:50;;;;;;;7.57;3.17;;;11.00;99.90;;;;;;5397556;26;20018;-82
2024/04/15 09:20:18;;;;;;;6.15;3.03;;;11.10;99.90;;;;;;5394132;26;20023;-83
2024/04/15 09:22:44;;;;;;;7.80;2.70;;;11.10;99.90;;;;;;5395471;26;20004;-82
2024/04/15 09:25:10;;;;;;;10.35;2.88;;;11.10;99.90;;;;;;5413511;26;20019;-81
2024/04/15 09:27:36;;;;;;;8.98;3.00;;;11.00;99.90;;;;;;5385610;26;20022;-82
2024/04/15 09:30:03;;;;;;;9.02;3.10;;;11.10;99.90;;;;;;5380091;26;20384;-83
2024/04/15 09:32:29;;;;;;;7.47;2.50;;;10.90;99.90;;;;;;5394466;26;19996;-84
2024/04/15 09:35:03;;;;;;;7.07;2.40;;;11.00;99.90;;;;;;5380637;26;20008;-80
2024/04/15 09:37:31;;;;;;;8.60;2.58;;;11.60;99.90;;;;;;5387656;26;20054;-83
2024/04/15 09:39:57;;;;;;;6.15;2.22;;;11.00;99.90;;;;;;5396692;26;20045;-81
2024/04/15 09:42:24;;;;;;;6.95;3.15;;;10.90;99.90;;;;;;5394216;26;20008;-81
2024/04/15 09:44:51;;;;;;;6.78;2.10;;;11.10;99.90;;;;;;5403349;26;20027;-82
2024/04/15 09:47:17;;;;;;;8.45;2.40;;;11.10;99.90;;;;;;5398354;26;20008;-83
2024/04/15 09:49:46;;;;;;;9.05;2.95;;;11.20;99.90;;;;;;5401536;26;20012;-79
2024/04/15 09:52:20;;;;;;;9.85;3.20;;;11.20;99.90;;;;;;5401955;26;20008;-82
2024/04/15 09:54:50;;;;;;;5.97;2.60;;;11.30;99.90;;;;;;5380047;26;20479;-83
2024/04/15 09:57:26;;;;;;;8.95;2.50;;;11.20;99.90;;;;;;5379966;26;20591;-83
2024/04/15 09:59:59;;;;;;;6.40;2.47;;;11.20;99.90;;;;;;5380197;26;20030;-83
2024/04/15 10:02:41;;;;;;;7.95;2.80;;;11.00;99.90;;;;;;5380631;26;20493;-81
2024/04/15 10:05:19;;;;;;;5.32;1.98;;;10.90;99.90;;;;;;5387096;26;20826;-82
2024/04/15 10:07:52;;;;;;;7.55;2.22;;;10.80;99.90;;;;;;5395813;26;20015;-80
2024/04/15 10:10:20;;;;;;;6.25;2.17;;;10.70;99.90;;;;;;5395421;26;20012;-82
2024/04/15 10:12:51;;;;;;;6.97;2.15;;;10.60;99.90;;;;;;5380188;26;20004;-83
2024/04/15 10:15:23;;;;;;;7.63;2.47;;;10.60;99.90;;;;;;5393353;26;20091;-84
2024/04/15 10:17:58;;;;;;;6.07;2.20;;;10.60;99.90;;;;;;5379428;26;20009;-80
2024/04/15 10:20:33;;;;;;;5.93;2.15;;;10.60;99.90;;;;;;5383442;26;20032;-83
2024/04/15 10:23:03;;;;;;;6.13;2.70;;;10.60;99.90;;;;;;5393113;26;20008;-82
2024/04/15 10:25:33;;;;;;;8.27;2.80;;;10.50;99.90;;;;;;5381700;26;20008;-81
2024/04/15 10:27:58;;;;;;;6.50;2.40;;;10.50;99.90;;;;;;5391270;26;20766;-82
2024/04/15 10:30:29;;;;;;;7.00;2.40;;;10.50;99.90;;;;;;5395829;26;20040;-82
2024/04/15 10:33:06;;;;;;;9.32;2.75;;;10.50;99.90;;;;;;5393179;26;20012;-83
2024/04/15 10:35:34;;;;;;;7.88;2.92;;;10.50;99.90;;;;;;5391587;26;20048;-82
2024/04/15 10:38:02;;;;;;;6.78;2.95;;;10.50;99.90;;;;;;5395935;26;20018;-81
2024/04/15 10:40:43;;;;;;;12.00;3.40;;;10.60;99.90;;;;;;5394940;26;20217;-82
2024/04/15 10:43:15;;;;;;;7.85;2.97;;;10.60;99.90;;;;;;5392183;26;20009;-82
2024/04/15 10:45:41;;;;;;;10.63;4.30;;;10.60;99.90;;;;;;5390310;26;20012;-81
2024/04/15 10:48:06;;;;;;;7.72;2.92;;;10.60;99.90;;;;;;5404741;26;20358;-82
2024/04/15 10:50:35;;;;;;;7.72;3.45;;;10.60;99.90;;;;;;5400677;26;20019;-83
2024/04/15 10:53:01;;;;;;;11.13;3.50;;;10.70;99.90;;;;;;5394800;26;20020;-81
2024/04/15 10:55:27;;;;;;;6.80;3.55;;;10.90;99.90;;;;;;5395033;26;20017;-80
2024/04/15 10:57:53;;;;;;;5.88;3.20;;;10.90;99.90;;;;;;5394954;26;20008;-81
2024/04/15 11:00:21;;;;;;;8.45;3.50;;;11.30;99.90;;;;;;5395812;26;20084;-82
2024/04/15 11:02:51;;;;;;;10.88;4.35;;;10.60;99.90;;;;;;5401390;26;20049;-82
2024/04/15 11:05:22;;;;;;;8.02;3.60;;;10.40;99.90;;;;;;5386690;26;20065;-80
2024/04/15 11:07:51;;;;;;;7.25;4.25;;;10.40;99.90;;;;;;5390395;26;20277;-81
2024/04/15 11:10:17;;;;;;;12.82;5.28;;;10.20;99.90;;;;;;5407549;26;20478;-77
2024/04/15 11:12:43;;;;;;;13.32;6.00;;;10.00;99.90;;;;;;5401659;26;20007;-80
2024/04/15 11:15:15;;;;;;;11.13;5.43;;;10.10;99.90;;;;;;5398930;26;20053;-82
2024/04/15 11:17:52;;;;;;;8.10;4.85;;;10.00;99.90;;;;;;5391097;26;20008;-81
2024/04/15 11:20:22;;;;;;;8.55;5.20;;;9.90;99.90;;;;;;5391719;26;20054;-79
2024/04/15 11:22:48;;;;;;;9.40;5.22;;;9.70;99.90;;;;;;5388466;26;20011;-79
2024/04/15 11:25:16;;;;;;;14.18;5.15;;;9.50;99.90;;;;;;5392397;26;20008;-82
2024/04/15 11:27:51;;;;;;;7.38;4.60;;;9.40;99.90;;;;;;5393524;26;20454;-81
2024/04/15 11:30:25;;;;;;;10.15;5.38;;;9.20;99.90;;;;;;5393419;26;20023;-78
2024/04/15 11:32:51;;;;;;;12.95;6.15;;;9.20;99.90;;;;;;5380421;26;20008;-80
2024/04/15 11:35:18;;;;;;;10.88;6.63;;;9.00;99.90;;;;;;5385135;26;20008;-77
2024/04/15 11:37:49;;;;;;;10.80;7.07;;;8.80;99.90;;;;;;5395060;26;20015;-78
2024/04/15 11:40:15;;;;;;;11.63;7.38;;;8.60;99.90;;;;;;5388342;26;20063;-80
2024/04/15 11:42:42;;;;;;;15.65;7.53;;;8.60;99.90;;;;;;5383536;26;20011;-78
2024/04/15 11:45:14;;;;;;;12.82;8.40;;;8.50;99.90;;;;;;5386959;26;20004;-78
2024/04/15 11:47:39;;;;;;;14.77;9.10;;;8.60;99.90;;;;;;5382107;26;20074;-80
2024/04/15 11:50:06;;;;;;;12.88;9.98;;;8.50;99.90;;;;;;5385967;26;20460;-81
2024/04/15 11:52:31;;;;;;;13.95;9.00;;;8.50;99.90;;;;;;5401117;26;20027;-77
2024/04/15 11:54:57;;;;;;;15.70;9.07;;;8.50;99.90;;;;;;5382006;26;20082;-80
2024/04/15 11:57:23;;;;;;;13.88;9.05;;;8.50;99.90;;;;;;5391054;26;20004;-81
2024/04/15 11:59:48;;;;;;;14.27;9.45;;;8.50;99.90;;;;;;5388916;26;20339;-79
2024/04/15 12:02:14;;;;;;;16.42;9.02;;;8.50;99.90;;;;;;5392947;26;20008;-78
2024/04/15 12:04:47;;;;;;;14.30;9.80;;;8.60;99.90;;;;;;5396444;26;20008;-81
2024/04/15 12:07:14;;;;;;;16.17;9.85;;;8.60;99.90;;;;;;5389798;26;20008;-81
2024/04/15 12:09:42;;;;;;;16.42;9.18;;;8.60;99.90;;;;;;5389455;26;20023;-79
2024/04/15 12:12:08;;;;;;;18.50;9.38;;;8.50;99.90;;;;;;5390083;26;20359;-81
2024/04/15 12:14:34;;;;;;;13.98;8.13;;;8.50;99.90;;;;;;5396552;26;20481;-79
2024/04/15 12:17:01;;;;;;;13.48;10.18;;;8.50;99.90;;;;;;5394593;26;20015;-80
2024/04/15 12:19:27;;;;;;;11.98;9.25;;;8.50;99.90;;;;;;5386208;26;20011;-79
2024/04/15 12:21:52;;;;;;;13.43;8.95;;;8.40;99.90;;;;;;5389545;26;20022;-78
2024/04/15 12:24:18;;;;;;;13.68;8.52;;;8.40;99.90;;;;;;5395860;26;20018;-80
2024/04/15 12:26:44;;;;;;;15.57;8.70;;;8.40;99.90;;;;;;5390848;26;20444;-83
2024/04/15 12:29:09;;;;;;;12.80;7.82;;;8.40;99.90;;;;;;5386856;26;20004;-79
2024/04/15 12:31:35;;;;;;;16.20;8.93;;;8.40;99.90;;;;;;5392915;26;20016;-80
2024/04/15 12:34:01;;;;;;;14.18;8.00;;;8.40;99.90;;;;;;5404057;26;20022;-79
2024/04/15 12:36:27;;;;;;;13.13;8.25;;;8.50;99.90;;;;;;5387745;26;20019;-81
2024/04/15 12:38:53;;;;;;;12.10;7.80;;;8.70;99.90;;;;;;5410486;26;20106;-81
2024/04/15 12:41:19;;;;;;;13.75;7.40;;;8.80;99.90;;;;;;5380229;26;20004;-79
2024/04/15 12:43:46;;;;;;;11.90;6.70;;;8.90;99.90;;;;;;5387917;26;20030;-82
2024/04/15 12:46:12;;;;;;;7.75;5.30;;;9.00;99.90;;;;;;5392717;26;20084;-81
2024/04/15 12:48:38;;;;;;;5.70;4.40;;;9.00;99.90;;;;;;5405678;26;20020;-80